sensor_id;sensor_type;location;lat;lon;timestamp;P1;durP1;ratioP1;P2;durP2;ratioP2
13329;SDS011;6734;48.638;8.896;2022-09-02T00:00:30;6.20;;;5.47;;
13329;SDS011;6734;48.638;8.896;2022-09-02T00:02:56;6.17;;;5.00;;
13329;SDS011;6734;48.638;8.896;2022-09-02T00:05:21;6.60;;;5.77;;
13329;SDS011;6734;48.638;8.896;2022-09-02T00:07:48;7.73;;;5.70;;
13329;SDS011;6734;48.638;8.896;2022-09-02T00:10:13;9.23;;;5.27;;
13329;SDS011;6734;48.638;8.896;2022-09-02T00:12:39;5.70;;;5.07;;
13329;SDS011;6734;48.638;8.896;2022-09-02T00:15:05;6.23;;;5.27;;
13329;SDS011;6734;48.638;8.896;2022-09-02T00:17:31;6.13;;;5.43;;
13329;SDS011;6734;48.638;8.896;2022-09-02T00:19:57;6.13;;;5.30;;
13329;SDS011;6734;48.638;8.896;2022-09-02T00:22:23;6.63;;;5.00;;
13329;SDS011;6734;48.638;8.896;2022-09-02T00:24:48;6.70;;;5.57;;
13329;SDS011;6734;48.638;8.896;2022-09-02T00:27:14;8.30;;;5.67;;
13329;SDS011;6734;48.638;8.896;2022-09-02T00:29:40;6.07;;;5.47;;
13329;SDS011;6734;48.638;8.896;2022-09-02T00:32:06;6.23;;;5.33;;
13329;SDS011;6734;48.638;8.896;2022-09-02T00:34:31;6.67;;;5.00;;
13329;SDS011;6734;48.638;8.896;2022-09-02T00:36:57;5.83;;;4.90;;
13329;SDS011;6734;48.638;8.896;2022-09-02T00:39:23;5.17;;;4.67;;
13329;SDS011;6734;48.638;8.896;2022-09-02T00:41:50;6.90;;;4.70;;
13329;SDS011;6734;48.638;8.896;2022-09-02T00:44:17;6.03;;;5.27;;
13329;SDS011;6734;48.638;8.896;2022-09-02T00:46:43;6.20;;;5.37;;
13329;SDS011;6734;48.638;8.896;2022-09-02T00:51:37;5.50;;;4.83;;
13329;SDS011;6734;48.638;8.896;2022-09-02T00:54:04;6.00;;;4.93;;
13329;SDS011;6734;48.638;8.896;2022-09-02T00:56:30;6.37;;;5.30;;
13329;SDS011;6734;48.638;8.896;2022-09-02T00:58:58;6.53;;;5.10;;
13329;SDS011;6734;48.638;8.896;2022-09-02T01:01:25;5.50;;;4.87;;
13329;SDS011;6734;48.638;8.896;2022-09-02T01:03:51;6.00;;;5.07;;
13329;SDS011;6734;48.638;8.896;2022-09-02T01:06:19;6.20;;;5.20;;
13329;SDS011;6734;48.638;8.896;2022-09-02T01:08:50;5.70;;;5.10;;
13329;SDS011;6734;48.638;8.896;2022-09-02T01:11:18;7.13;;;5.10;;
13329;SDS011;6734;48.638;8.896;2022-09-02T01:13:45;5.90;;;4.80;;
13329;SDS011;6734;48.638;8.896;2022-09-02T01:16:31;8.83;;;4.87;;
13329;SDS011;6734;48.638;8.896;2022-09-02T01:19:02;5.83;;;5.07;;
13329;SDS011;6734;48.638;8.896;2022-09-02T01:21:34;5.77;;;4.97;;
13329;SDS011;6734;48.638;8.896;2022-09-02T01:24:00;5.00;;;4.50;;
13329;SDS011;6734;48.638;8.896;2022-09-02T01:26:26;5.97;;;4.83;;
13329;SDS011;6734;48.638;8.896;2022-09-02T01:28:52;5.60;;;5.03;;
13329;SDS011;6734;48.638;8.896;2022-09-02T01:31:17;6.23;;;5.13;;
13329;SDS011;6734;48.638;8.896;2022-09-02T01:33:43;6.13;;;4.73;;
13329;SDS011;6734;48.638;8.896;2022-09-02T01:36:09;5.27;;;4.67;;
13329;SDS011;6734;48.638;8.896;2022-09-02T01:38:35;5.70;;;4.87;;
13329;SDS011;6734;48.638;8.896;2022-09-02T01:41:00;7.43;;;5.17;;
13329;SDS011;6734;48.638;8.896;2022-09-02T01:43:27;5.40;;;4.80;;
13329;SDS011;6734;48.638;8.896;2022-09-02T01:45:53;5.80;;;4.83;;
13329;SDS011;6734;48.638;8.896;2022-09-02T01:48:20;5.70;;;5.10;;
13329;SDS011;6734;48.638;8.896;2022-09-02T01:50:48;6.53;;;5.17;;
13329;SDS011;6734;48.638;8.896;2022-09-02T01:53:14;4.93;;;4.43;;
13329;SDS011;6734;48.638;8.896;2022-09-02T01:55:40;7.10;;;5.00;;
13329;SDS011;6734;48.638;8.896;2022-09-02T01:58:06;5.93;;;5.10;;
13329;SDS011;6734;48.638;8.896;2022-09-02T02:00:32;8.17;;;5.17;;
13329;SDS011;6734;48.638;8.896;2022-09-02T02:02:58;5.57;;;4.87;;
13329;SDS011;6734;48.638;8.896;2022-09-02T02:05:24;5.40;;;4.83;;
13329;SDS011;6734;48.638;8.896;2022-09-02T02:07:49;6.30;;;5.50;;
13329;SDS011;6734;48.638;8.896;2022-09-02T02:10:17;6.17;;;4.73;;
13329;SDS011;6734;48.638;8.896;2022-09-02T02:12:43;7.07;;;5.50;;
13329;SDS011;6734;48.638;8.896;2022-09-02T02:15:11;6.37;;;4.73;;
13329;SDS011;6734;48.638;8.896;2022-09-02T02:17:39;6.53;;;4.73;;
13329;SDS011;6734;48.638;8.896;2022-09-02T02:20:06;5.63;;;5.07;;
13329;SDS011;6734;48.638;8.896;2022-09-02T02:22:33;5.40;;;4.70;;
13329;SDS011;6734;48.638;8.896;2022-09-02T02:24:59;5.20;;;4.70;;
13329;SDS011;6734;48.638;8.896;2022-09-02T02:27:25;8.10;;;5.47;;
13329;SDS011;6734;48.638;8.896;2022-09-02T02:29:51;5.73;;;5.07;;
13329;SDS011;6734;48.638;8.896;2022-09-02T02:32:17;5.57;;;4.90;;
13329;SDS011;6734;48.638;8.896;2022-09-02T02:34:44;6.83;;;5.17;;
13329;SDS011;6734;48.638;8.896;2022-09-02T02:37:10;6.17;;;5.57;;
13329;SDS011;6734;48.638;8.896;2022-09-02T02:39:37;6.60;;;5.47;;
13329;SDS011;6734;48.638;8.896;2022-09-02T02:42:03;5.80;;;5.20;;
13329;SDS011;6734;48.638;8.896;2022-09-02T02:44:29;5.87;;;5.17;;
13329;SDS011;6734;48.638;8.896;2022-09-02T02:46:55;5.80;;;5.20;;
13329;SDS011;6734;48.638;8.896;2022-09-02T02:49:22;7.07;;;5.33;;
13329;SDS011;6734;48.638;8.896;2022-09-02T02:51:48;6.87;;;5.30;;
13329;SDS011;6734;48.638;8.896;2022-09-02T02:54:14;7.07;;;5.10;;
13329;SDS011;6734;48.638;8.896;2022-09-02T02:56:40;5.33;;;4.83;;
13329;SDS011;6734;48.638;8.896;2022-09-02T02:59:06;6.40;;;5.03;;
13329;SDS011;6734;48.638;8.896;2022-09-02T03:01:32;6.20;;;5.27;;
13329;SDS011;6734;48.638;8.896;2022-09-02T03:03:58;5.70;;;5.07;;
13329;SDS011;6734;48.638;8.896;2022-09-02T03:06:24;6.33;;;5.10;;
13329;SDS011;6734;48.638;8.896;2022-09-02T03:08:50;7.00;;;6.03;;
13329;SDS011;6734;48.638;8.896;2022-09-02T03:11:17;6.93;;;5.03;;
13329;SDS011;6734;48.638;8.896;2022-09-02T03:13:46;6.13;;;5.20;;
13329;SDS011;6734;48.638;8.896;2022-09-02T03:16:12;6.53;;;4.87;;
13329;SDS011;6734;48.638;8.896;2022-09-02T03:18:38;6.80;;;4.50;;
13329;SDS011;6734;48.638;8.896;2022-09-02T03:21:05;5.10;;;4.50;;
13329;SDS011;6734;48.638;8.896;2022-09-02T03:23:32;5.70;;;5.13;;
13329;SDS011;6734;48.638;8.896;2022-09-02T03:25:58;7.47;;;5.17;;
13329;SDS011;6734;48.638;8.896;2022-09-02T03:28:24;5.87;;;4.67;;
13329;SDS011;6734;48.638;8.896;2022-09-02T03:30:50;6.87;;;5.40;;
13329;SDS011;6734;48.638;8.896;2022-09-02T03:33:17;4.87;;;4.37;;
13329;SDS011;6734;48.638;8.896;2022-09-02T03:35:43;4.93;;;4.43;;
13329;SDS011;6734;48.638;8.896;2022-09-02T03:38:10;4.97;;;4.50;;
13329;SDS011;6734;48.638;8.896;2022-09-02T03:40:36;5.90;;;5.27;;
13329;SDS011;6734;48.638;8.896;2022-09-02T03:43:03;5.47;;;4.97;;
13329;SDS011;6734;48.638;8.896;2022-09-02T03:45:30;8.20;;;4.97;;
13329;SDS011;6734;48.638;8.896;2022-09-02T03:47:56;6.27;;;5.13;;
13329;SDS011;6734;48.638;8.896;2022-09-02T03:50:24;5.20;;;4.70;;
13329;SDS011;6734;48.638;8.896;2022-09-02T03:52:53;6.03;;;4.57;;
13329;SDS011;6734;48.638;8.896;2022-09-02T03:55:20;5.07;;;4.50;;
13329;SDS011;6734;48.638;8.896;2022-09-02T03:57:46;4.87;;;4.17;;
13329;SDS011;6734;48.638;8.896;2022-09-02T04:00:13;4.37;;;3.97;;
13329;SDS011;6734;48.638;8.896;2022-09-02T04:02:41;7.93;;;5.23;;
13329;SDS011;6734;48.638;8.896;2022-09-02T04:05:07;6.17;;;5.50;;
13329;SDS011;6734;48.638;8.896;2022-09-02T04:07:33;5.43;;;4.70;;
13329;SDS011;6734;48.638;8.896;2022-09-02T04:09:59;6.03;;;4.97;;
13329;SDS011;6734;48.638;8.896;2022-09-02T04:12:25;5.43;;;4.50;;
13329;SDS011;6734;48.638;8.896;2022-09-02T04:14:51;6.87;;;4.67;;
13329;SDS011;6734;48.638;8.896;2022-09-02T04:23:39;4.47;;;4.07;;
13329;SDS011;6734;48.638;8.896;2022-09-02T04:26:09;6.20;;;4.33;;
13329;SDS011;6734;48.638;8.896;2022-09-02T04:28:36;7.53;;;4.37;;
13329;SDS011;6734;48.638;8.896;2022-09-02T04:31:02;6.87;;;4.40;;
13329;SDS011;6734;48.638;8.896;2022-09-02T04:33:29;4.50;;;4.10;;
13329;SDS011;6734;48.638;8.896;2022-09-02T04:35:55;6.70;;;4.83;;
13329;SDS011;6734;48.638;8.896;2022-09-02T04:38:21;4.73;;;4.10;;
13329;SDS011;6734;48.638;8.896;2022-09-02T04:40:47;4.60;;;4.20;;
13329;SDS011;6734;48.638;8.896;2022-09-02T04:43:13;5.20;;;4.13;;
13329;SDS011;6734;48.638;8.896;2022-09-02T04:45:39;6.00;;;4.40;;
13329;SDS011;6734;48.638;8.896;2022-09-02T04:48:05;4.10;;;3.70;;
13329;SDS011;6734;48.638;8.896;2022-09-02T04:50:31;4.37;;;3.60;;
13329;SDS011;6734;48.638;8.896;2022-09-02T04:52:57;11.97;;;8.43;;
13329;SDS011;6734;48.638;8.896;2022-09-02T04:55:24;6.80;;;4.83;;
13329;SDS011;6734;48.638;8.896;2022-09-02T04:57:49;5.73;;;4.93;;
13329;SDS011;6734;48.638;8.896;2022-09-02T05:00:15;6.23;;;5.27;;
13329;SDS011;6734;48.638;8.896;2022-09-02T05:02:42;7.83;;;4.60;;
13329;SDS011;6734;48.638;8.896;2022-09-02T05:05:08;5.30;;;4.50;;
13329;SDS011;6734;48.638;8.896;2022-09-02T05:07:35;5.73;;;4.70;;
13329;SDS011;6734;48.638;8.896;2022-09-02T05:10:02;5.63;;;4.50;;
13329;SDS011;6734;48.638;8.896;2022-09-02T05:12:30;5.50;;;4.40;;
13329;SDS011;6734;48.638;8.896;2022-09-02T05:14:58;5.97;;;4.30;;
13329;SDS011;6734;48.638;8.896;2022-09-02T05:17:25;4.33;;;3.77;;
13329;SDS011;6734;48.638;8.896;2022-09-02T05:19:57;5.43;;;4.30;;
13329;SDS011;6734;48.638;8.896;2022-09-02T05:22:23;5.07;;;4.10;;
13329;SDS011;6734;48.638;8.896;2022-09-02T05:24:49;4.50;;;4.10;;
13329;SDS011;6734;48.638;8.896;2022-09-02T05:27:15;5.30;;;4.13;;
13329;SDS011;6734;48.638;8.896;2022-09-02T05:29:41;6.00;;;4.13;;
13329;SDS011;6734;48.638;8.896;2022-09-02T05:32:07;7.00;;;4.50;;
13329;SDS011;6734;48.638;8.896;2022-09-02T05:34:34;5.30;;;4.57;;
13329;SDS011;6734;48.638;8.896;2022-09-02T05:37:00;6.53;;;4.40;;
13329;SDS011;6734;48.638;8.896;2022-09-02T05:39:26;4.70;;;3.80;;
13329;SDS011;6734;48.638;8.896;2022-09-02T05:41:52;6.27;;;4.07;;
13329;SDS011;6734;48.638;8.896;2022-09-02T05:44:18;5.30;;;4.13;;
13329;SDS011;6734;48.638;8.896;2022-09-02T05:46:44;4.90;;;3.97;;
13329;SDS011;6734;48.638;8.896;2022-09-02T05:49:10;4.97;;;4.40;;
13329;SDS011;6734;48.638;8.896;2022-09-02T05:51:43;4.63;;;4.07;;
13329;SDS011;6734;48.638;8.896;2022-09-02T05:54:21;5.43;;;3.97;;
13329;SDS011;6734;48.638;8.896;2022-09-02T05:56:49;4.70;;;4.20;;
13329;SDS011;6734;48.638;8.896;2022-09-02T05:59:16;5.43;;;4.13;;
13329;SDS011;6734;48.638;8.896;2022-09-02T06:01:43;4.73;;;4.07;;
13329;SDS011;6734;48.638;8.896;2022-09-02T06:04:10;4.60;;;4.20;;
13329;SDS011;6734;48.638;8.896;2022-09-02T06:06:35;4.20;;;3.80;;
13329;SDS011;6734;48.638;8.896;2022-09-02T06:09:06;6.07;;;4.23;;
13329;SDS011;6734;48.638;8.896;2022-09-02T06:11:34;4.50;;;3.60;;
13329;SDS011;6734;48.638;8.896;2022-09-02T06:14:09;5.10;;;3.80;;
13329;SDS011;6734;48.638;8.896;2022-09-02T06:16:39;5.70;;;4.20;;
13329;SDS011;6734;48.638;8.896;2022-09-02T06:19:06;4.23;;;3.83;;
13329;SDS011;6734;48.638;8.896;2022-09-02T06:21:32;4.83;;;4.33;;
13329;SDS011;6734;48.638;8.896;2022-09-02T06:23:58;4.30;;;3.90;;
13329;SDS011;6734;48.638;8.896;2022-09-02T06:26:24;4.20;;;3.80;;
13329;SDS011;6734;48.638;8.896;2022-09-02T06:28:50;4.53;;;4.13;;
13329;SDS011;6734;48.638;8.896;2022-09-02T06:31:18;5.47;;;3.90;;
13329;SDS011;6734;48.638;8.896;2022-09-02T06:33:45;6.07;;;4.30;;
13329;SDS011;6734;48.638;8.896;2022-09-02T06:36:13;6.33;;;3.80;;
13329;SDS011;6734;48.638;8.896;2022-09-02T06:38:41;6.10;;;3.93;;
13329;SDS011;6734;48.638;8.896;2022-09-02T06:41:12;6.33;;;4.33;;
13329;SDS011;6734;48.638;8.896;2022-09-02T06:43:40;5.10;;;4.03;;
13329;SDS011;6734;48.638;8.896;2022-09-02T06:46:06;5.83;;;4.03;;
13329;SDS011;6734;48.638;8.896;2022-09-02T06:48:33;4.23;;;3.83;;
13329;SDS011;6734;48.638;8.896;2022-09-02T06:50:59;4.73;;;4.23;;
13329;SDS011;6734;48.638;8.896;2022-09-02T06:53:25;5.93;;;4.00;;
13329;SDS011;6734;48.638;8.896;2022-09-02T06:55:51;5.37;;;4.63;;
13329;SDS011;6734;48.638;8.896;2022-09-02T06:58:17;6.13;;;4.13;;
13329;SDS011;6734;48.638;8.896;2022-09-02T07:00:43;4.27;;;3.87;;
13329;SDS011;6734;48.638;8.896;2022-09-02T07:03:09;4.60;;;4.00;;
13329;SDS011;6734;48.638;8.896;2022-09-02T07:05:58;5.30;;;3.70;;
13329;SDS011;6734;48.638;8.896;2022-09-02T07:08:24;4.27;;;3.87;;
13329;SDS011;6734;48.638;8.896;2022-09-02T07:10:50;4.60;;;4.20;;
13329;SDS011;6734;48.638;8.896;2022-09-02T07:13:16;5.60;;;4.07;;
13329;SDS011;6734;48.638;8.896;2022-09-02T07:15:42;4.57;;;3.83;;
13329;SDS011;6734;48.638;8.896;2022-09-02T07:18:07;4.90;;;3.90;;
13329;SDS011;6734;48.638;8.896;2022-09-02T07:20:33;4.03;;;3.70;;
13329;SDS011;6734;48.638;8.896;2022-09-02T07:22:59;4.10;;;3.70;;
13329;SDS011;6734;48.638;8.896;2022-09-02T07:25:25;4.50;;;3.57;;
13329;SDS011;6734;48.638;8.896;2022-09-02T07:27:51;4.17;;;3.70;;
13329;SDS011;6734;48.638;8.896;2022-09-02T07:30:18;5.63;;;3.40;;
13329;SDS011;6734;48.638;8.896;2022-09-02T07:32:44;3.87;;;3.43;;
13329;SDS011;6734;48.638;8.896;2022-09-02T07:35:10;3.53;;;3.13;;
13329;SDS011;6734;48.638;8.896;2022-09-02T07:37:35;3.53;;;3.23;;
13329;SDS011;6734;48.638;8.896;2022-09-02T07:40:05;4.60;;;3.60;;
13329;SDS011;6734;48.638;8.896;2022-09-02T07:42:32;3.40;;;3.10;;
13329;SDS011;6734;48.638;8.896;2022-09-02T07:44:58;4.60;;;2.97;;
13329;SDS011;6734;48.638;8.896;2022-09-02T07:47:23;4.37;;;3.03;;
13329;SDS011;6734;48.638;8.896;2022-09-02T07:49:49;3.33;;;2.87;;
13329;SDS011;6734;48.638;8.896;2022-09-02T07:52:15;2.90;;;2.70;;
13329;SDS011;6734;48.638;8.896;2022-09-02T07:54:41;2.63;;;2.43;;
13329;SDS011;6734;48.638;8.896;2022-09-02T07:57:06;3.87;;;3.10;;
13329;SDS011;6734;48.638;8.896;2022-09-02T07:59:32;3.33;;;2.60;;
13329;SDS011;6734;48.638;8.896;2022-09-02T08:01:59;2.83;;;2.53;;
13329;SDS011;6734;48.638;8.896;2022-09-02T08:04:24;2.70;;;2.50;;
13329;SDS011;6734;48.638;8.896;2022-09-02T08:06:51;5.13;;;2.50;;
13329;SDS011;6734;48.638;8.896;2022-09-02T08:09:17;3.33;;;2.50;;
13329;SDS011;6734;48.638;8.896;2022-09-02T08:11:45;2.70;;;2.50;;
13329;SDS011;6734;48.638;8.896;2022-09-02T08:14:13;2.57;;;2.37;;
13329;SDS011;6734;48.638;8.896;2022-09-02T08:16:41;3.13;;;2.27;;
13329;SDS011;6734;48.638;8.896;2022-09-02T08:19:08;2.53;;;2.33;;
13329;SDS011;6734;48.638;8.896;2022-09-02T08:21:35;3.30;;;2.50;;
13329;SDS011;6734;48.638;8.896;2022-09-02T08:24:01;2.67;;;2.47;;
13329;SDS011;6734;48.638;8.896;2022-09-02T08:26:27;2.60;;;2.40;;
13329;SDS011;6734;48.638;8.896;2022-09-02T08:28:53;3.37;;;2.13;;
13329;SDS011;6734;48.638;8.896;2022-09-02T08:31:19;3.17;;;2.20;;
13329;SDS011;6734;48.638;8.896;2022-09-02T08:33:45;2.70;;;2.50;;
13329;SDS011;6734;48.638;8.896;2022-09-02T08:36:11;7.30;;;2.37;;
13329;SDS011;6734;48.638;8.896;2022-09-02T08:38:39;2.50;;;2.20;;
13329;SDS011;6734;48.638;8.896;2022-09-02T08:43:50;3.17;;;2.50;;
13329;SDS011;6734;48.638;8.896;2022-09-02T08:46:19;3.40;;;2.40;;
13329;SDS011;6734;48.638;8.896;2022-09-02T08:54:07;5.57;;;2.80;;
13329;SDS011;6734;48.638;8.896;2022-09-02T08:56:34;5.00;;;3.83;;
13329;SDS011;6734;48.638;8.896;2022-09-02T08:59:00;2.97;;;2.40;;
13329;SDS011;6734;48.638;8.896;2022-09-02T09:09:47;4.60;;;2.83;;
13329;SDS011;6734;48.638;8.896;2022-09-02T09:17:58;3.43;;;2.80;;
13329;SDS011;6734;48.638;8.896;2022-09-02T09:20:28;2.83;;;2.47;;
13329;SDS011;6734;48.638;8.896;2022-09-02T09:22:57;3.03;;;2.47;;
13329;SDS011;6734;48.638;8.896;2022-09-02T09:25:26;3.00;;;2.20;;
13329;SDS011;6734;48.638;8.896;2022-09-02T09:27:56;2.93;;;2.50;;
13329;SDS011;6734;48.638;8.896;2022-09-02T09:30:22;3.07;;;2.10;;
13329;SDS011;6734;48.638;8.896;2022-09-02T09:32:50;2.50;;;2.30;;
13329;SDS011;6734;48.638;8.896;2022-09-02T09:35:19;4.83;;;2.13;;
13329;SDS011;6734;48.638;8.896;2022-09-02T09:37:46;2.57;;;1.90;;
13329;SDS011;6734;48.638;8.896;2022-09-02T09:42:54;3.53;;;2.27;;
13329;SDS011;6734;48.638;8.896;2022-09-02T09:48:10;2.37;;;2.10;;
13329;SDS011;6734;48.638;8.896;2022-09-02T09:50:47;2.77;;;2.00;;
13329;SDS011;6734;48.638;8.896;2022-09-02T10:01:36;7.30;;;2.00;;
13329;SDS011;6734;48.638;8.896;2022-09-02T10:08:55;2.13;;;1.97;;
13329;SDS011;6734;48.638;8.896;2022-09-02T10:11:25;3.43;;;1.97;;
13329;SDS011;6734;48.638;8.896;2022-09-02T10:13:54;2.63;;;1.90;;
13329;SDS011;6734;48.638;8.896;2022-09-02T10:16:30;3.03;;;1.90;;
13329;SDS011;6734;48.638;8.896;2022-09-02T10:22:06;2.70;;;1.80;;
13329;SDS011;6734;48.638;8.896;2022-09-02T10:25:02;2.43;;;1.90;;
13329;SDS011;6734;48.638;8.896;2022-09-02T10:35:53;3.80;;;1.80;;
13329;SDS011;6734;48.638;8.896;2022-09-02T10:38:41;2.57;;;2.17;;
13329;SDS011;6734;48.638;8.896;2022-09-02T10:41:50;2.30;;;1.73;;
13329;SDS011;6734;48.638;8.896;2022-09-02T10:44:10;7.30;;;1.70;;
13329;SDS011;6734;48.638;8.896;2022-09-02T10:55:36;2.70;;;1.53;;
13329;SDS011;6734;48.638;8.896;2022-09-02T10:58:44;2.43;;;1.70;;
13329;SDS011;6734;48.638;8.896;2022-09-02T11:01:22;2.10;;;1.90;;
13329;SDS011;6734;48.638;8.896;2022-09-02T11:03:56;3.13;;;1.60;;
13329;SDS011;6734;48.638;8.896;2022-09-02T11:06:29;3.63;;;1.70;;
13329;SDS011;6734;48.638;8.896;2022-09-02T11:09:03;1.60;;;1.50;;
13329;SDS011;6734;48.638;8.896;2022-09-02T11:11:56;2.40;;;1.70;;
13329;SDS011;6734;48.638;8.896;2022-09-02T11:14:34;1.63;;;1.53;;
13329;SDS011;6734;48.638;8.896;2022-09-02T11:17:08;1.50;;;1.40;;
13329;SDS011;6734;48.638;8.896;2022-09-02T11:22:39;1.70;;;1.60;;
13329;SDS011;6734;48.638;8.896;2022-09-02T11:25:15;1.50;;;1.40;;
13329;SDS011;6734;48.638;8.896;2022-09-02T11:28:00;1.80;;;1.60;;
13329;SDS011;6734;48.638;8.896;2022-09-02T11:31:02;1.33;;;1.20;;
13329;SDS011;6734;48.638;8.896;2022-09-02T11:33:42;2.43;;;1.50;;
13329;SDS011;6734;48.638;8.896;2022-09-02T11:36:36;1.87;;;1.60;;
13329;SDS011;6734;48.638;8.896;2022-09-02T11:55:21;1.87;;;1.50;;
13329;SDS011;6734;48.638;8.896;2022-09-02T11:57:59;3.10;;;1.43;;
13329;SDS011;6734;48.638;8.896;2022-09-02T12:00:27;2.50;;;1.63;;
13329;SDS011;6734;48.638;8.896;2022-09-02T12:02:58;2.63;;;1.70;;
13329;SDS011;6734;48.638;8.896;2022-09-02T12:21:18;3.30;;;1.80;;
13329;SDS011;6734;48.638;8.896;2022-09-02T12:26:23;2.43;;;1.90;;
13329;SDS011;6734;48.638;8.896;2022-09-02T12:28:53;1.80;;;1.70;;
13329;SDS011;6734;48.638;8.896;2022-09-02T12:31:42;2.63;;;1.70;;
13329;SDS011;6734;48.638;8.896;2022-09-02T12:41:51;1.73;;;1.63;;
13329;SDS011;6734;48.638;8.896;2022-09-02T12:47:25;1.70;;;1.60;;
13329;SDS011;6734;48.638;8.896;2022-09-02T12:50:02;2.70;;;1.70;;
13329;SDS011;6734;48.638;8.896;2022-09-02T12:52:45;1.80;;;1.50;;
13329;SDS011;6734;48.638;8.896;2022-09-02T12:55:22;4.40;;;1.83;;
13329;SDS011;6734;48.638;8.896;2022-09-02T12:57:53;2.80;;;1.90;;
13329;SDS011;6734;48.638;8.896;2022-09-02T13:05:52;1.83;;;1.73;;
13329;SDS011;6734;48.638;8.896;2022-09-02T13:34:43;2.10;;;1.90;;
13329;SDS011;6734;48.638;8.896;2022-09-02T13:39:52;2.43;;;1.67;;
13329;SDS011;6734;48.638;8.896;2022-09-02T13:42:18;2.20;;;2.00;;
13329;SDS011;6734;48.638;8.896;2022-09-02T13:44:48;2.92;;;1.98;;
13329;SDS011;6734;48.638;8.896;2022-09-02T13:47:15;2.10;;;1.90;;
13329;SDS011;6734;48.638;8.896;2022-09-02T13:49:45;2.00;;;1.80;;
13329;SDS011;6734;48.638;8.896;2022-09-02T13:52:18;2.10;;;1.90;;
13329;SDS011;6734;48.638;8.896;2022-09-02T13:54:46;2.88;;;1.77;;
13329;SDS011;6734;48.638;8.896;2022-09-02T13:57:17;2.20;;;2.00;;
13329;SDS011;6734;48.638;8.896;2022-09-02T13:59:51;4.18;;;2.03;;
13329;SDS011;6734;48.638;8.896;2022-09-02T14:02:28;2.10;;;1.90;;
13329;SDS011;6734;48.638;8.896;2022-09-02T14:04:56;2.47;;;2.00;;
13329;SDS011;6734;48.638;8.896;2022-09-02T14:07:34;2.38;;;1.80;;
13329;SDS011;6734;48.638;8.896;2022-09-02T14:10:05;1.98;;;1.88;;
13329;SDS011;6734;48.638;8.896;2022-09-02T14:12:34;2.27;;;1.70;;
13329;SDS011;6734;48.638;8.896;2022-09-02T14:15:01;2.63;;;1.67;;
13329;SDS011;6734;48.638;8.896;2022-09-02T14:17:29;4.05;;;2.05;;
13329;SDS011;6734;48.638;8.896;2022-09-02T14:22:38;2.13;;;1.90;;
13329;SDS011;6734;48.638;8.896;2022-09-02T14:25:14;3.20;;;1.77;;
13329;SDS011;6734;48.638;8.896;2022-09-02T14:27:47;2.10;;;1.92;;
13329;SDS011;6734;48.638;8.896;2022-09-02T14:30:22;2.00;;;1.77;;
13329;SDS011;6734;48.638;8.896;2022-09-02T14:38:48;7.45;;;2.30;;
13329;SDS011;6734;48.638;8.896;2022-09-02T14:41:25;2.92;;;2.08;;
13329;SDS011;6734;48.638;8.896;2022-09-02T14:46:44;1.90;;;1.80;;
13329;SDS011;6734;48.638;8.896;2022-09-02T14:51:46;3.03;;;1.90;;
13329;SDS011;6734;48.638;8.896;2022-09-02T14:57:25;1.70;;;1.60;;
13329;SDS011;6734;48.638;8.896;2022-09-02T14:59:56;2.30;;;2.07;;
13329;SDS011;6734;48.638;8.896;2022-09-02T15:02:23;2.03;;;1.70;;
13329;SDS011;6734;48.638;8.896;2022-09-02T15:04:54;4.53;;;2.00;;
13329;SDS011;6734;48.638;8.896;2022-09-02T15:07:22;2.47;;;2.28;;
13329;SDS011;6734;48.638;8.896;2022-09-02T15:09:48;2.40;;;2.20;;
13329;SDS011;6734;48.638;8.896;2022-09-02T15:12:18;2.07;;;1.87;;
13329;SDS011;6734;48.638;8.896;2022-09-02T15:14:48;2.20;;;2.00;;
13329;SDS011;6734;48.638;8.896;2022-09-02T15:17:18;2.87;;;2.10;;
13329;SDS011;6734;48.638;8.896;2022-09-02T15:19:44;3.77;;;2.00;;
13329;SDS011;6734;48.638;8.896;2022-09-02T15:22:11;1.80;;;1.70;;
13329;SDS011;6734;48.638;8.896;2022-09-02T15:24:37;3.67;;;2.07;;
13329;SDS011;6734;48.638;8.896;2022-09-02T15:27:02;2.30;;;2.20;;
13329;SDS011;6734;48.638;8.896;2022-09-02T15:29:29;1.90;;;1.80;;
13329;SDS011;6734;48.638;8.896;2022-09-02T15:31:55;2.00;;;1.80;;
13329;SDS011;6734;48.638;8.896;2022-09-02T15:34:22;2.07;;;1.87;;
13329;SDS011;6734;48.638;8.896;2022-09-02T15:36:48;2.27;;;1.87;;
13329;SDS011;6734;48.638;8.896;2022-09-02T15:39:14;1.90;;;1.80;;
13329;SDS011;6734;48.638;8.896;2022-09-02T15:41:42;2.17;;;1.97;;
13329;SDS011;6734;48.638;8.896;2022-09-02T15:44:08;2.20;;;2.00;;
13329;SDS011;6734;48.638;8.896;2022-09-02T15:46:35;2.23;;;2.03;;
13329;SDS011;6734;48.638;8.896;2022-09-02T15:49:03;1.73;;;1.60;;
13329;SDS011;6734;48.638;8.896;2022-09-02T15:51:31;2.83;;;2.00;;
13329;SDS011;6734;48.638;8.896;2022-09-02T15:53:58;2.63;;;1.87;;
13329;SDS011;6734;48.638;8.896;2022-09-02T15:56:29;2.00;;;1.80;;
13329;SDS011;6734;48.638;8.896;2022-09-02T15:58:59;4.70;;;1.80;;
13329;SDS011;6734;48.638;8.896;2022-09-02T16:01:29;2.27;;;1.80;;
13329;SDS011;6734;48.638;8.896;2022-09-02T16:03:56;2.23;;;1.97;;
13329;SDS011;6734;48.638;8.896;2022-09-02T16:06:23;1.90;;;1.80;;
13329;SDS011;6734;48.638;8.896;2022-09-02T16:08:49;2.00;;;1.80;;
13329;SDS011;6734;48.638;8.896;2022-09-02T16:11:15;2.80;;;1.97;;
13329;SDS011;6734;48.638;8.896;2022-09-02T16:13:43;2.13;;;1.90;;
13329;SDS011;6734;48.638;8.896;2022-09-02T16:16:10;1.93;;;1.83;;
13329;SDS011;6734;48.638;8.896;2022-09-02T16:18:37;2.27;;;2.00;;
13329;SDS011;6734;48.638;8.896;2022-09-02T16:21:04;2.43;;;2.07;;
13329;SDS011;6734;48.638;8.896;2022-09-02T16:23:30;3.60;;;2.60;;
13329;SDS011;6734;48.638;8.896;2022-09-02T16:26:13;2.50;;;2.30;;
13329;SDS011;6734;48.638;8.896;2022-09-02T16:28:41;1.97;;;1.87;;
13329;SDS011;6734;48.638;8.896;2022-09-02T16:31:08;2.10;;;1.90;;
13329;SDS011;6734;48.638;8.896;2022-09-02T16:33:36;1.73;;;1.63;;
13329;SDS011;6734;48.638;8.896;2022-09-02T16:36:03;3.57;;;1.83;;
13329;SDS011;6734;48.638;8.896;2022-09-02T16:38:31;4.07;;;1.90;;
13329;SDS011;6734;48.638;8.896;2022-09-02T16:40:58;2.00;;;1.80;;
13329;SDS011;6734;48.638;8.896;2022-09-02T16:43:25;3.40;;;1.80;;
13329;SDS011;6734;48.638;8.896;2022-09-02T16:45:51;2.93;;;2.00;;
13329;SDS011;6734;48.638;8.896;2022-09-02T16:48:18;2.53;;;2.20;;
13329;SDS011;6734;48.638;8.896;2022-09-02T16:50:45;2.60;;;2.00;;
13329;SDS011;6734;48.638;8.896;2022-09-02T16:53:11;2.00;;;1.90;;
13329;SDS011;6734;48.638;8.896;2022-09-02T16:55:43;3.00;;;2.10;;
13329;SDS011;6734;48.638;8.896;2022-09-02T16:58:10;2.60;;;1.70;;
13329;SDS011;6734;48.638;8.896;2022-09-02T17:00:36;2.10;;;1.80;;
13329;SDS011;6734;48.638;8.896;2022-09-02T17:03:03;2.33;;;1.87;;
13329;SDS011;6734;48.638;8.896;2022-09-02T17:05:30;2.83;;;1.90;;
13329;SDS011;6734;48.638;8.896;2022-09-02T17:07:56;4.87;;;1.83;;
13329;SDS011;6734;48.638;8.896;2022-09-02T17:10:23;1.70;;;1.60;;
13329;SDS011;6734;48.638;8.896;2022-09-02T17:12:48;3.40;;;2.10;;
13329;SDS011;6734;48.638;8.896;2022-09-02T17:15:14;4.87;;;1.97;;
13329;SDS011;6734;48.638;8.896;2022-09-02T17:17:40;2.20;;;1.77;;
13329;SDS011;6734;48.638;8.896;2022-09-02T17:20:06;2.40;;;1.90;;
13329;SDS011;6734;48.638;8.896;2022-09-02T17:22:33;1.93;;;1.77;;
13329;SDS011;6734;48.638;8.896;2022-09-02T17:24:58;1.97;;;1.80;;
13329;SDS011;6734;48.638;8.896;2022-09-02T17:27:24;2.87;;;1.90;;
13329;SDS011;6734;48.638;8.896;2022-09-02T17:29:51;3.03;;;1.90;;
13329;SDS011;6734;48.638;8.896;2022-09-02T17:32:17;2.23;;;1.90;;
13329;SDS011;6734;48.638;8.896;2022-09-02T17:34:43;3.33;;;2.33;;
13329;SDS011;6734;48.638;8.896;2022-09-02T17:37:09;2.90;;;2.30;;
13329;SDS011;6734;48.638;8.896;2022-09-02T17:39:35;2.37;;;2.17;;
13329;SDS011;6734;48.638;8.896;2022-09-02T17:42:01;3.47;;;2.10;;
13329;SDS011;6734;48.638;8.896;2022-09-02T17:44:29;3.00;;;1.87;;
13329;SDS011;6734;48.638;8.896;2022-09-02T17:46:59;2.97;;;2.07;;
13329;SDS011;6734;48.638;8.896;2022-09-02T17:49:25;3.30;;;1.90;;
13329;SDS011;6734;48.638;8.896;2022-09-02T17:51:51;3.23;;;2.00;;
13329;SDS011;6734;48.638;8.896;2022-09-02T17:54:16;2.33;;;1.70;;
13329;SDS011;6734;48.638;8.896;2022-09-02T18:10:03;3.17;;;1.80;;